Terminal Aerodrome Forecast
Issued by NWS

Home | Current Version | Previous Version | Graphics & Text | Print | Product List | Glossary On
Versions: 1 2 3 4 5 6 7 8 9 10 11 12 13 14 15 16 17 18 19 20 21 22 23 24 25 26 27 28 29 30 31 32 33 34 35 36 37 38 39 40 41 42 43 44
000
FTUS43 KGRB 180539
TAFATW
TAF
KATW 180539Z 1806/1906 VRB03KT 1/2SM FG OVC003
     FM181000 23006KT 2SM BR OVC004
     FM181800 22010KT P6SM SCT008
     FM182300 22006KT P6SM SKC=

USA.gov is the U.S. government's official web portal to all federal, state and local government web resources and services.